Atlanta, GA (30332)

11:37 PM EDT on September 15, 2014 (GMT -0400)
Georgia Tech (Midtown) | Change Station
CLOSE
Current Station
Personal Weather Station
Location: Atlanta, GA
Elevation: 935 ft
Nearby Weather Stations

Elev 935 ft 33.78 °N, 84.40 °W | Updated 0 second ago

Partly Cloudy
Partly Cloudy
73.3 °F
Feels Like 72 °F
N
4.0
Wind Variable Wind from ESE
Gusts 6.0 mph

Today
High -- | Low -- °F
--% Chance of Precip.
Yesterday
High -- | Low -- °F
Precip. -- in
7:20 AM 7:44 PM
Waning Gibbous, 49% visible
Pressure 30.12 in
Visibility 10.0 miles
Clouds Clear
Heat Index 72 °F
Dew Point 69 °F
Humidity 86%
Rainfall 0.00 in
Snow Depth Not available.
UV 0 out of 12
Pollen 7.50 out of 12
Ozone Good
PM2.5 Moderate
Flu Activity Not available.
METAR KFTY 160253Z 15003KT 10SM CLR 23/21 A3014 RMK AO2 RAB04E13 SLP198 P0000 60000 T02330211 51003

More Conditions Fewer Conditions

Pressure 30.12 in
Visibility 10.0 miles
Clouds Clear
Heat Index 72 °F
Dew Point 69 °F
Humidity 86%
Rainfall 0.00 in
Snow Depth Not available.
UV 0 out of 12
Pollen 7.50 out of 12
Ozone Good
PM2.5 Moderate
Flu Activity Not available.
METAR KFTY 160253Z 15003KT 10SM CLR 23/21 A3014 RMK AO2 RAB04E13 SLP198 P0000 60000 T02330211 51003

More Conditions Fewer Conditions

10-Day Weather Forecast

Almanac

Astronomy

Sep. 15, 2014 Rise Set
Actual Time 7:20 AM EDT 7:44 PM EDT
Civil Twilight 6:55 AM EDT 8:09 PM EDT
Nautical Twilight 6:26 AM EDT 8:38 PM EDT
Astronomical Twilight 5:56 AM EDT 9:08 PM EDT
Moon No Moon Rise 2:03 PM EDT (9/15)
Length of Visible Light 13h 13m
Length of Day
12h 23m
Tomorrow will be 2m 4s shorter.
Waning Gibbous, 49% of the Moon is Illuminated
Today
Waning Gibbous
Sep 24
New
Oct 1
First Quarter
Oct 8
Full
Oct 15
Last Quarter

Today's Extremes

State Highs State Lows

Community

WunderPhotos

Upload Photos

1,753,693 photos uploaded!

Nearby

Air Quality

  Air Quality AQ Index Pollutant
Current Moderate
PM2.5
Current Good
OZONE
Monday Good
OZONE
Monday Good
PM2.5
Tuesday Good
OZONE
Tuesday Good
PM2.5

Snow Depth

Station Depth Elevation
No new snow has been reported.

Earthquake Activity

City Distance Mag. Time & Date
No recent earthquake activity has been reported nearby.
Minimum magnitude displayed is 2.5.

Coastal Water Temperatures

Place Temperature
No Stations Reporting

Nearby Weather Stations